East Worcester, New York
Current Conditions -  °F | °C
As of 3:55 AM on Wednesday 22 Oct 2014 (Local Time) from KNY0 Reporting Station
Overcast Overcast  
Wind Chill: 43°   Ceiling: 1100
Heat Index: 47°   Visibility: 10mi
Dew Point: 44°   Wind: 10mph
Humidity: 88%   Direction: 40°NE
Pressure: 30.03"   Gusts: 18mph
Location:  42.62°N, 74.67°W
Report Text: KNY0 220755Z AUTO 04009G16KT 10SM OVC011 09/07 A3003 RMK AO2 T00850066
Loading
Personal Weather Stations






























Interactive Weather Map
Tropical Storm Tracking
New forecast layout! Learn more

10-Day Weather Forecast

Advertisements
Track Severe Weather on mobile